createdAt,value
2019-01-20T00:03:13.372Z,19.15
2019-01-20T00:05:41.255Z,20.20
2019-01-20T00:08:09.171Z,17.37
2019-01-20T00:10:37.267Z,16.12
2019-01-20T00:16:12.699Z,17.15
2019-01-20T00:18:40.635Z,16.95
2019-01-20T00:21:08.495Z,15.72
2019-01-20T00:23:36.392Z,17.40
2019-01-20T00:26:04.397Z,18.62
2019-01-20T00:28:32.272Z,15.32
2019-01-20T00:31:00.245Z,14.43
2019-01-20T00:33:28.603Z,15.55
2019-01-20T00:35:56.438Z,15.43
2019-01-20T00:38:24.348Z,16.17
2019-01-20T00:40:52.227Z,17.35
2019-01-20T00:43:20.436Z,21.73
2019-01-20T00:45:48.314Z,18.98
2019-01-20T00:48:16.218Z,16.85
2019-01-20T00:50:44.082Z,16.80
2019-01-20T00:53:11.982Z,15.45
2019-01-20T00:55:40.121Z,15.58
2019-01-20T00:58:08.090Z,18.02
2019-01-20T01:03:47.519Z,15.48
2019-01-20T01:09:15.804Z,14.80
2019-01-20T01:11:43.810Z,16.77
2019-01-20T01:14:12.085Z,15.83
2019-01-20T01:19:28.974Z,15.00
2019-01-20T01:21:57.111Z,18.92
2019-01-20T01:24:25.016Z,16.95
2019-01-20T01:27:11.846Z,18.37
2019-01-20T01:29:39.764Z,16.50
2019-01-20T01:32:07.684Z,19.30
2019-01-20T01:34:35.621Z,16.95
2019-01-20T01:37:03.915Z,14.78
2019-01-20T01:39:32.110Z,16.05
2019-01-20T01:41:59.981Z,17.27
2019-01-20T01:44:39.958Z,16.60
2019-01-20T01:46:59.622Z,16.97
2019-01-20T01:49:27.579Z,18.07
2019-01-20T01:51:55.845Z,16.12
2019-01-20T01:54:23.729Z,15.25
2019-01-20T01:56:51.701Z,14.85
2019-01-20T02:02:27.542Z,17.45
2019-01-20T02:04:55.810Z,16.35
2019-01-20T02:07:23.705Z,14.70
2019-01-20T02:09:51.848Z,15.85
2019-01-20T02:12:20.090Z,15.60
2019-01-20T02:14:50.270Z,15.75
2019-01-20T02:19:53.048Z,15.18
2019-01-20T02:22:22.952Z,14.73
2019-01-20T02:24:50.957Z,14.85
2019-01-20T02:27:19.562Z,15.60
2019-01-20T02:29:47.617Z,16.67
2019-01-20T02:32:15.637Z,15.43
2019-01-20T02:34:43.841Z,15.68
2019-01-20T02:37:11.772Z,16.45
2019-01-20T02:39:39.679Z,14.15
2019-01-20T02:42:07.903Z,14.93
2019-01-20T02:44:36.607Z,14.20
2019-01-20T02:47:04.594Z,19.85
2019-01-20T02:49:32.487Z,14.18
2019-01-20T02:52:00.366Z,15.43
2019-01-20T02:54:28.233Z,14.47
2019-01-20T02:59:37.839Z,14.60
2019-01-20T03:02:06.443Z,14.35
2019-01-20T03:04:36.462Z,14.03
2019-01-20T03:07:24.425Z,14.15
2019-01-20T03:09:55.018Z,16.15
2019-01-20T03:12:22.969Z,14.93
2019-01-20T03:14:51.082Z,15.10
2019-01-20T03:17:19.431Z,15.70
2019-01-20T03:19:47.355Z,13.83
2019-01-20T03:22:15.579Z,13.70
2019-01-20T03:24:43.487Z,13.98
2019-01-20T03:27:11.720Z,13.95
2019-01-20T03:29:40.030Z,18.25
2019-01-20T03:32:07.991Z,15.10
2019-01-20T03:43:13.878Z,14.15
2019-01-20T03:48:52.442Z,17.60
2019-01-20T03:51:41.002Z,13.98
2019-01-20T03:54:27.905Z,15.32
2019-01-20T03:56:57.436Z,14.25
2019-01-20T04:08:15.643Z,14.47
2019-01-20T04:10:43.879Z,15.13
2019-01-20T04:13:31.892Z,14.63
2019-01-20T04:15:59.797Z,13.90
2019-01-20T04:18:30.192Z,14.30
2019-01-20T04:21:18.563Z,14.65
2019-01-20T04:23:50.109Z,15.30
2019-01-20T04:26:18.910Z,14.87
2019-01-20T04:31:55.530Z,16.02
2019-01-20T04:37:14.510Z,13.98
2019-01-20T04:39:43.206Z,14.07
2019-01-20T04:42:11.987Z,16.35
2019-01-20T04:44:40.381Z,15.03
2019-01-20T04:47:13.833Z,13.80
2019-01-20T04:49:46.580Z,12.98
2019-01-20T04:52:14.514Z,15.13
2019-01-20T04:54:45.005Z,13.32
2019-01-20T04:59:51.126Z,14.20
2019-01-20T05:10:43.438Z,14.55
2019-01-20T05:13:11.438Z,13.25
2019-01-20T05:16:21.889Z,14.15
2019-01-20T05:18:29.011Z,14.87
2019-01-20T05:23:46.118Z,13.80
2019-01-20T05:26:14.333Z,14.73
2019-01-20T05:28:42.309Z,15.35
2019-01-20T05:31:10.211Z,15.00
2019-01-20T05:39:10.677Z,14.83
2019-01-20T05:41:38.917Z,13.68
2019-01-20T05:44:07.805Z,14.80
2019-01-20T05:46:37.455Z,17.02
2019-01-20T05:54:45.176Z,17.60
2019-01-20T05:56:47.704Z,17.00
2019-01-20T05:59:20.019Z,13.95
2019-01-20T06:07:29.773Z,14.07
2019-01-20T06:10:00.340Z,12.60
2019-01-20T06:12:28.595Z,12.43
2019-01-20T06:14:56.898Z,14.70
2019-01-20T06:23:07.936Z,14.38
2019-01-20T06:25:36.155Z,15.83
2019-01-20T06:28:04.446Z,15.32
2019-01-20T06:30:33.822Z,13.78
2019-01-20T06:33:19.407Z,13.22
2019-01-20T06:35:36.034Z,15.35
2019-01-20T06:38:06.903Z,14.45
2019-01-20T06:40:35.282Z,16.02
2019-01-20T06:43:04.031Z,17.20
2019-01-20T06:45:31.910Z,14.07
2019-01-20T06:47:59.806Z,13.88
2019-01-20T06:50:28.511Z,14.18
2019-01-20T06:52:56.841Z,15.10
2019-01-20T06:58:02.076Z,15.68
2019-01-20T07:00:30.116Z,13.40
2019-01-20T07:02:58.739Z,14.87
2019-01-20T07:05:26.749Z,15.25
2019-01-20T07:07:54.737Z,13.95
2019-01-20T07:10:23.098Z,14.53
2019-01-20T07:13:11.350Z,14.00
2019-01-20T07:15:40.049Z,14.58
2019-01-20T07:21:20.202Z,12.98
2019-01-20T07:26:56.005Z,15.98
2019-01-20T07:32:46.146Z,14.65
2019-01-20T07:38:22.140Z,16.70
2019-01-20T07:40:50.158Z,13.72
2019-01-20T07:49:15.940Z,14.13
2019-01-20T07:52:03.157Z,13.78
2019-01-20T07:54:31.410Z,13.10
2019-01-20T07:57:13.996Z,15.95
2019-01-20T07:59:30.997Z,15.55
2019-01-20T08:02:01.725Z,24.23
2019-01-20T08:04:29.743Z,14.35
2019-01-20T08:07:00.027Z,17.02
2019-01-20T08:09:28.318Z,15.43
2019-01-20T08:12:00.554Z,17.80
2019-01-20T08:17:04.296Z,16.30
2019-01-20T08:22:20.402Z,15.95
2019-01-20T08:24:50.466Z,17.35
2019-01-20T08:29:59.042Z,17.23
2019-01-20T08:37:42.076Z,16.50
2019-01-20T08:40:12.598Z,20.17
2019-01-20T08:42:40.501Z,17.45
2019-01-20T08:45:12.724Z,18.50
2019-01-20T08:47:45.154Z,19.65
2019-01-20T08:50:15.008Z,17.98
2019-01-20T08:52:42.966Z,17.87
2019-01-20T08:55:10.859Z,16.77
2019-01-20T08:57:39.140Z,17.25
2019-01-20T09:05:50.007Z,18.57
2019-01-20T09:11:25.394Z,18.87
2019-01-20T09:13:53.249Z,21.37
2019-01-20T09:16:21.147Z,20.35
2019-01-20T09:18:49.033Z,20.60
2019-01-20T09:21:16.901Z,17.48
2019-01-20T09:23:45.136Z,18.15
2019-01-20T09:26:13.117Z,18.82
2019-01-20T09:28:40.940Z,19.70
2019-01-20T09:31:08.806Z,19.73
2019-01-20T09:33:36.635Z,18.52
2019-01-20T09:36:04.584Z,18.52
2019-01-20T09:38:32.411Z,18.20
2019-01-20T09:41:00.237Z,19.12
2019-01-20T09:43:28.060Z,18.37
2019-01-20T09:48:30.819Z,18.45
2019-01-20T09:50:58.684Z,21.55
2019-01-20T09:53:26.545Z,19.60
2019-01-20T09:55:54.366Z,20.85
2019-01-20T09:58:22.235Z,21.65
2019-01-20T10:00:50.090Z,19.37
2019-01-20T10:03:17.999Z,19.95
2019-01-20T10:05:45.854Z,20.62
2019-01-20T10:08:13.722Z,22.30
2019-01-20T10:10:41.569Z,23.95
2019-01-20T10:13:09.421Z,21.70
2019-01-20T10:15:37.314Z,22.00
2019-01-20T10:18:05.177Z,22.30
2019-01-20T10:20:33.002Z,22.98
2019-01-20T10:23:00.910Z,21.95
2019-01-20T10:25:28.812Z,22.17
2019-01-20T10:27:56.645Z,23.60
2019-01-20T10:30:28.391Z,23.32
2019-01-20T10:32:56.315Z,21.93
2019-01-20T10:35:27.345Z,25.00
2019-01-20T10:40:34.646Z,22.42
2019-01-20T10:43:02.495Z,23.73
2019-01-20T10:45:30.478Z,22.77
2019-01-20T10:47:58.359Z,23.45
2019-01-20T10:50:26.242Z,23.22
2019-01-20T10:52:54.159Z,23.15
2019-01-20T10:55:22.024Z,22.95
2019-01-20T10:57:49.879Z,22.98
2019-01-20T11:03:13.322Z,24.00
2019-01-20T11:05:41.168Z,23.32
2019-01-20T11:08:09.050Z,23.12
2019-01-20T11:10:36.898Z,24.32
2019-01-20T11:13:04.734Z,27.62
2019-01-20T11:15:32.664Z,24.75
2019-01-20T11:18:00.518Z,22.70
2019-01-20T11:20:28.397Z,26.17
2019-01-20T11:22:56.270Z,24.10
2019-01-20T11:25:25.526Z,28.80
2019-01-20T11:27:53.354Z,22.40
2019-01-20T11:30:21.203Z,21.40
2019-01-20T11:32:49.151Z,21.07
2019-01-20T11:35:17.493Z,22.45
2019-01-20T11:37:45.346Z,21.80
2019-01-20T11:40:16.095Z,21.93
2019-01-20T11:42:43.942Z,18.90
2019-01-20T11:45:33.796Z,18.30
2019-01-20T11:48:01.601Z,18.65
2019-01-20T11:50:29.470Z,21.27
2019-01-20T11:52:57.374Z,18.60
2019-01-20T11:55:25.208Z,20.30
2019-01-20T11:57:53.035Z,19.20
2019-01-20T12:00:22.019Z,19.30
2019-01-20T12:02:49.874Z,20.10
2019-01-20T12:05:17.807Z,18.52
2019-01-20T12:07:45.665Z,19.65
2019-01-20T12:10:13.526Z,18.10
2019-01-20T12:12:41.834Z,20.95
2019-01-20T12:15:10.475Z,19.55
2019-01-20T12:17:38.321Z,19.40
2019-01-20T12:20:06.501Z,26.17
2019-01-20T12:22:34.548Z,18.67
2019-01-20T12:25:02.380Z,19.48
2019-01-20T12:27:30.246Z,19.00
2019-01-20T12:29:58.050Z,19.23
2019-01-20T12:32:25.898Z,20.50
2019-01-20T12:34:53.707Z,18.10
2019-01-20T12:37:21.535Z,19.48
2019-01-20T12:39:49.369Z,18.35
2019-01-20T12:42:17.194Z,18.95
2019-01-20T12:44:45.023Z,19.50
2019-01-20T12:47:12.890Z,20.30
2019-01-20T12:49:40.701Z,19.55
2019-01-20T12:52:08.543Z,20.80
2019-01-20T12:54:36.561Z,18.42
2019-01-20T12:57:04.398Z,20.88
2019-01-20T12:59:44.176Z,20.92
2019-01-20T13:02:01.838Z,18.35
2019-01-20T13:04:29.714Z,19.10
2019-01-20T13:06:57.571Z,19.30
2019-01-20T13:09:25.431Z,18.48
2019-01-20T13:11:53.243Z,17.27
2019-01-20T13:17:08.095Z,20.10
2019-01-20T13:19:35.926Z,18.67
2019-01-20T13:22:03.777Z,15.75
2019-01-20T13:24:31.600Z,19.85
2019-01-20T13:26:59.446Z,19.15
2019-01-20T13:29:49.349Z,17.95
2019-01-20T13:32:17.235Z,20.23
2019-01-20T13:34:45.138Z,17.77
2019-01-20T13:37:12.946Z,16.55
2019-01-20T13:39:41.079Z,19.70
2019-01-20T13:42:08.910Z,17.95
2019-01-20T13:44:36.761Z,17.05
2019-01-20T13:47:06.617Z,17.70
2019-01-20T13:49:34.478Z,16.37
2019-01-20T13:52:02.333Z,17.45
2019-01-20T13:54:30.142Z,18.75
2019-01-20T13:57:01.002Z,18.27
2019-01-20T13:59:28.851Z,17.82
2019-01-20T14:01:56.797Z,18.37
2019-01-20T14:04:24.609Z,16.73
2019-01-20T14:06:52.452Z,21.23
2019-01-20T14:09:20.291Z,16.65
2019-01-20T14:11:48.103Z,17.30
2019-01-20T14:14:15.905Z,17.25
2019-01-20T14:16:45.841Z,18.20
2019-01-20T14:19:21.690Z,21.62
2019-01-20T14:21:46.005Z,16.90
2019-01-20T14:24:13.801Z,24.47
2019-01-20T14:26:41.714Z,17.87
2019-01-20T14:29:09.514Z,19.82
2019-01-20T14:31:37.351Z,19.90
2019-01-20T14:34:05.174Z,17.35
2019-01-20T14:36:33.051Z,18.70
2019-01-20T14:41:49.562Z,18.50
2019-01-20T14:44:17.414Z,18.48
2019-01-20T14:46:45.610Z,19.20
2019-01-20T14:49:13.431Z,18.23
2019-01-20T14:51:41.301Z,20.00
2019-01-20T14:54:09.134Z,16.48
2019-01-20T14:59:28.045Z,19.00
2019-01-20T15:01:55.944Z,19.75
2019-01-20T15:04:23.790Z,18.67
2019-01-20T15:06:51.610Z,19.17
2019-01-20T15:09:19.444Z,20.57
2019-01-20T15:11:47.577Z,19.95
2019-01-20T15:14:15.429Z,16.97
2019-01-20T15:16:43.226Z,18.73
2019-01-20T15:19:11.054Z,21.45
2019-01-20T15:21:38.855Z,20.05
2019-01-20T15:24:06.702Z,18.77
2019-01-20T15:26:34.550Z,20.62
2019-01-20T15:29:02.407Z,19.02
2019-01-20T15:31:30.261Z,19.05
2019-01-20T15:33:58.117Z,20.62
2019-01-20T15:36:25.949Z,23.20
2019-01-20T15:38:53.781Z,20.27
2019-01-20T15:41:40.657Z,22.02
2019-01-20T15:44:08.514Z,19.40
2019-01-20T15:46:36.322Z,18.87
2019-01-20T15:49:04.257Z,19.50
2019-01-20T15:51:32.102Z,17.75
2019-01-20T15:53:59.957Z,19.60
2019-01-20T15:56:27.805Z,20.72
2019-01-20T15:58:55.642Z,18.10
2019-01-20T16:03:57.249Z,18.32
2019-01-20T16:06:25.056Z,19.60
2019-01-20T16:08:53.196Z,16.62
2019-01-20T16:11:21.032Z,17.98
2019-01-20T16:14:10.717Z,17.85
2019-01-20T16:16:38.648Z,16.67
2019-01-20T16:19:06.497Z,16.77
2019-01-20T16:21:34.336Z,17.50
2019-01-20T16:24:02.151Z,16.40
2019-01-20T16:26:30.028Z,18.77
2019-01-20T16:28:57.921Z,20.90
2019-01-20T16:31:25.801Z,17.75
2019-01-20T16:33:54.020Z,16.93
2019-01-20T16:36:21.901Z,18.10
2019-01-20T16:38:49.744Z,17.00
2019-01-20T16:41:17.638Z,17.75
2019-01-20T16:43:45.488Z,17.73
2019-01-20T16:46:13.506Z,19.02
2019-01-20T16:49:00.514Z,19.80
2019-01-20T16:51:28.526Z,20.00
2019-01-20T16:53:56.531Z,21.07
2019-01-20T16:56:24.357Z,18.55
2019-01-20T16:58:52.238Z,18.60
2019-01-20T17:01:20.159Z,19.25
2019-01-20T17:03:48.129Z,22.05
2019-01-20T17:06:16.024Z,18.62
2019-01-20T17:08:43.879Z,21.30
2019-01-20T17:11:11.833Z,20.92
2019-01-20T17:13:39.770Z,20.43
2019-01-20T17:16:07.633Z,20.85
2019-01-20T17:18:35.574Z,19.67
2019-01-20T17:21:03.467Z,22.98
2019-01-20T17:23:31.312Z,20.00
2019-01-20T17:26:18.263Z,21.33
2019-01-20T17:28:46.288Z,22.85
2019-01-20T17:31:14.306Z,24.77
2019-01-20T17:33:42.245Z,20.30
2019-01-20T17:36:10.160Z,20.55
2019-01-20T17:38:38.240Z,24.63
2019-01-20T17:41:06.194Z,21.15
2019-01-20T17:43:34.137Z,25.05
2019-01-20T17:46:01.992Z,22.50
2019-01-20T17:48:29.862Z,21.52
2019-01-20T17:51:00.247Z,21.62
2019-01-20T17:56:22.779Z,26.65
2019-01-20T17:58:50.707Z,29.98
2019-01-20T18:01:21.985Z,26.15
2019-01-20T18:04:09.106Z,27.02
2019-01-20T18:06:37.030Z,24.80
2019-01-20T18:11:55.545Z,25.88
2019-01-20T18:14:23.466Z,29.05
2019-01-20T18:16:51.387Z,24.57
2019-01-20T18:19:21.082Z,21.60
2019-01-20T18:22:08.134Z,21.17
2019-01-20T18:24:36.062Z,22.80
2019-01-20T18:27:04.190Z,19.75
2019-01-20T18:29:32.119Z,22.05
2019-01-20T18:32:00.113Z,22.98
2019-01-20T18:34:28.047Z,22.98
2019-01-20T18:36:56.001Z,22.05
2019-01-20T18:39:23.901Z,24.90
2019-01-20T18:41:51.945Z,23.83
2019-01-20T18:44:19.898Z,25.32
2019-01-20T18:46:47.883Z,24.00
2019-01-20T18:49:15.824Z,24.25
2019-01-20T18:51:43.841Z,19.55
2019-01-20T18:54:14.356Z,22.17
2019-01-20T18:56:42.329Z,24.85
2019-01-20T18:59:10.299Z,24.37
2019-01-20T19:01:38.353Z,22.60
2019-01-20T19:04:06.354Z,20.50
2019-01-20T19:11:48.348Z,22.48
2019-01-20T19:14:30.081Z,24.12
2019-01-20T19:16:46.021Z,22.50
2019-01-20T19:19:13.938Z,21.90
2019-01-20T19:21:41.895Z,25.82
2019-01-20T19:29:57.743Z,23.40
2019-01-20T19:32:26.101Z,30.60
2019-01-20T19:34:53.987Z,24.82
2019-01-20T19:37:22.526Z,19.30
2019-01-20T19:39:50.839Z,20.68
2019-01-20T19:42:20.411Z,20.52
2019-01-20T19:47:24.280Z,24.52
2019-01-20T19:58:07.633Z,24.40
2019-01-20T20:00:35.611Z,22.30
2019-01-20T20:03:22.653Z,24.80
2019-01-20T20:05:52.743Z,21.55
2019-01-20T20:08:20.725Z,29.37
2019-01-20T20:10:48.637Z,29.10
2019-01-20T20:13:16.610Z,25.85
2019-01-20T20:15:45.286Z,25.32
2019-01-20T20:18:15.423Z,25.20
2019-01-20T20:20:43.397Z,23.80
2019-01-20T20:23:32.016Z,22.42
2019-01-20T20:28:35.381Z,31.33
2019-01-20T20:31:22.438Z,24.37
2019-01-20T20:33:50.435Z,25.08
2019-01-20T20:44:49.726Z,24.43
2019-01-20T20:49:52.553Z,28.05
2019-01-20T20:55:15.435Z,23.00
2019-01-20T20:58:21.882Z,27.80
2019-01-20T21:00:51.368Z,25.88
2019-01-20T21:03:21.833Z,22.00
2019-01-20T21:06:09.210Z,23.55
2019-01-20T21:08:37.164Z,25.27
2019-01-20T21:11:05.178Z,22.77
2019-01-20T21:13:34.601Z,24.02
2019-01-20T21:16:03.496Z,24.98
2019-01-20T21:18:51.306Z,24.43
2019-01-20T21:21:39.056Z,26.97
2019-01-20T21:24:06.978Z,22.52
2019-01-20T21:26:34.905Z,24.47
2019-01-20T21:29:02.925Z,27.02
2019-01-20T21:31:30.866Z,24.55
2019-01-20T21:33:59.218Z,25.12
2019-01-20T21:36:47.068Z,24.67
2019-01-20T21:51:35.707Z,25.35
2019-01-20T22:03:08.189Z,27.15
2019-01-20T22:05:55.135Z,22.15
2019-01-20T22:08:23.450Z,23.22
2019-01-20T22:11:14.612Z,26.45
2019-01-20T22:28:16.909Z,23.67
2019-01-20T22:30:45.391Z,25.15
2019-01-20T22:39:07.158Z,21.80
2019-01-20T22:41:37.850Z,22.52
2019-01-20T22:47:00.618Z,26.00
2019-01-20T22:52:36.436Z,22.48
2019-01-20T23:03:57.239Z,24.52
2019-01-20T23:06:28.867Z,24.70
2019-01-20T23:09:06.450Z,30.32
2019-01-20T23:17:11.030Z,22.60
2019-01-20T23:19:59.503Z,20.35
2019-01-20T23:25:41.296Z,22.67
2019-01-20T23:31:16.958Z,21.87
2019-01-20T23:33:48.833Z,22.48
2019-01-20T23:36:37.045Z,22.60
2019-01-20T23:39:06.971Z,23.92
2019-01-20T23:53:10.632Z,22.85
2019-01-20T23:55:39.960Z,20.82
